sensor_id;sensor_type;location;lat;lon;timestamp;P1;durP1;ratioP1;P2;durP2;ratioP2
20954;SDS011;10636;19.390;-99.256;2023-08-08T00:00:06;7.97;;;7.28;;
20954;SDS011;10636;19.390;-99.256;2023-08-08T00:02:35;14.95;;;14.05;;
20954;SDS011;10636;19.390;-99.256;2023-08-08T00:05:04;7.95;;;7.43;;
20954;SDS011;10636;19.390;-99.256;2023-08-08T00:07:33;8.40;;;7.80;;
20954;SDS011;10636;19.390;-99.256;2023-08-08T00:10:02;15.55;;;14.57;;
20954;SDS011;10636;19.390;-99.256;2023-08-08T00:12:30;8.55;;;7.82;;
20954;SDS011;10636;19.390;-99.256;2023-08-08T00:15:01;16.17;;;15.02;;
20954;SDS011;10636;19.390;-99.256;2023-08-08T00:17:29;15.18;;;14.20;;
20954;SDS011;10636;19.390;-99.256;2023-08-08T00:19:58;7.38;;;6.72;;
20954;SDS011;10636;19.390;-99.256;2023-08-08T00:22:26;6.78;;;6.28;;
20954;SDS011;10636;19.390;-99.256;2023-08-08T00:24:55;14.57;;;13.77;;
20954;SDS011;10636;19.390;-99.256;2023-08-08T00:27:24;14.13;;;13.32;;
20954;SDS011;10636;19.390;-99.256;2023-08-08T00:29:52;6.30;;;5.80;;
20954;SDS011;10636;19.390;-99.256;2023-08-08T00:32:22;12.80;;;11.95;;
20954;SDS011;10636;19.390;-99.256;2023-08-08T00:34:51;14.15;;;13.35;;
20954;SDS011;10636;19.390;-99.256;2023-08-08T00:37:20;13.93;;;13.07;;
20954;SDS011;10636;19.390;-99.256;2023-08-08T00:39:48;13.70;;;12.90;;
20954;SDS011;10636;19.390;-99.256;2023-08-08T00:42:17;6.43;;;6.03;;
20954;SDS011;10636;19.390;-99.256;2023-08-08T00:44:45;6.70;;;6.13;;
20954;SDS011;10636;19.390;-99.256;2023-08-08T00:47:14;6.65;;;6.15;;
20954;SDS011;10636;19.390;-99.256;2023-08-08T00:49:44;6.22;;;5.75;;
20954;SDS011;10636;19.390;-99.256;2023-08-08T00:52:14;6.20;;;5.80;;
20954;SDS011;10636;19.390;-99.256;2023-08-08T00:54:43;13.70;;;12.98;;
20954;SDS011;10636;19.390;-99.256;2023-08-08T00:57:12;5.47;;;5.07;;
20954;SDS011;10636;19.390;-99.256;2023-08-08T00:59:42;12.00;;;11.38;;
20954;SDS011;10636;19.390;-99.256;2023-08-08T01:02:11;11.73;;;11.02;;
20954;SDS011;10636;19.390;-99.256;2023-08-08T01:04:40;5.35;;;4.95;;
20954;SDS011;10636;19.390;-99.256;2023-08-08T01:07:12;13.27;;;12.50;;
20954;SDS011;10636;19.390;-99.256;2023-08-08T01:09:50;12.38;;;11.77;;
20954;SDS011;10636;19.390;-99.256;2023-08-08T01:12:27;12.25;;;11.55;;
20954;SDS011;10636;19.390;-99.256;2023-08-08T01:14:56;12.00;;;11.30;;
20954;SDS011;10636;19.390;-99.256;2023-08-08T01:17:26;12.48;;;11.68;;
20954;SDS011;10636;19.390;-99.256;2023-08-08T01:19:55;11.75;;;11.15;;
20954;SDS011;10636;19.390;-99.256;2023-08-08T01:22:27;11.15;;;10.43;;
20954;SDS011;10636;19.390;-99.256;2023-08-08T01:25:05;13.18;;;12.50;;
20954;SDS011;10636;19.390;-99.256;2023-08-08T01:27:36;12.43;;;11.73;;
20954;SDS011;10636;19.390;-99.256;2023-08-08T01:30:06;13.05;;;12.30;;
20954;SDS011;10636;19.390;-99.256;2023-08-08T01:32:36;11.20;;;10.60;;
20954;SDS011;10636;19.390;-99.256;2023-08-08T01:35:06;11.25;;;10.57;;
20954;SDS011;10636;19.390;-99.256;2023-08-08T01:37:36;6.18;;;5.68;;
20954;SDS011;10636;19.390;-99.256;2023-08-08T01:40:15;6.05;;;5.65;;
20954;SDS011;10636;19.390;-99.256;2023-08-08T01:42:46;6.35;;;5.85;;
20954;SDS011;10636;19.390;-99.256;2023-08-08T01:45:16;6.47;;;5.93;;
20954;SDS011;10636;19.390;-99.256;2023-08-08T01:47:49;15.52;;;14.50;;
20954;SDS011;10636;19.390;-99.256;2023-08-08T01:50:19;15.27;;;14.40;;
20954;SDS011;10636;19.390;-99.256;2023-08-08T01:52:48;7.10;;;5.40;;
20954;SDS011;10636;19.390;-99.256;2023-08-08T01:55:19;14.93;;;13.95;;
20954;SDS011;10636;19.390;-99.256;2023-08-08T01:57:48;16.30;;;15.18;;
20954;SDS011;10636;19.390;-99.256;2023-08-08T02:00:17;6.32;;;5.25;;
20954;SDS011;10636;19.390;-99.256;2023-08-08T02:02:47;5.68;;;5.22;;
20954;SDS011;10636;19.390;-99.256;2023-08-08T02:05:16;7.55;;;5.97;;
20954;SDS011;10636;19.390;-99.256;2023-08-08T02:07:45;14.32;;;13.32;;
20954;SDS011;10636;19.390;-99.256;2023-08-08T02:10:14;13.85;;;12.82;;
20954;SDS011;10636;19.390;-99.256;2023-08-08T02:12:45;15.18;;;13.95;;
20954;SDS011;10636;19.390;-99.256;2023-08-08T02:15:14;14.45;;;13.45;;
20954;SDS011;10636;19.390;-99.256;2023-08-08T02:17:44;14.15;;;13.35;;
20954;SDS011;10636;19.390;-99.256;2023-08-08T02:20:14;14.95;;;14.05;;
20954;SDS011;10636;19.390;-99.256;2023-08-08T02:22:44;14.85;;;14.05;;
20954;SDS011;10636;19.390;-99.256;2023-08-08T02:25:14;6.65;;;4.95;;
20954;SDS011;10636;19.390;-99.256;2023-08-08T02:27:45;5.85;;;5.35;;
20954;SDS011;10636;19.390;-99.256;2023-08-08T02:30:17;5.38;;;4.55;;
20954;SDS011;10636;19.390;-99.256;2023-08-08T02:32:47;13.60;;;12.82;;
20954;SDS011;10636;19.390;-99.256;2023-08-08T02:35:16;5.25;;;4.85;;
20954;SDS011;10636;19.390;-99.256;2023-08-08T02:37:46;14.02;;;13.23;;
20954;SDS011;10636;19.390;-99.256;2023-08-08T02:40:15;13.93;;;13.13;;
20954;SDS011;10636;19.390;-99.256;2023-08-08T02:42:47;14.55;;;13.52;;
20954;SDS011;10636;19.390;-99.256;2023-08-08T02:45:16;14.40;;;13.55;;
20954;SDS011;10636;19.390;-99.256;2023-08-08T02:47:47;12.85;;;12.02;;
20954;SDS011;10636;19.390;-99.256;2023-08-08T02:50:17;14.05;;;13.23;;
20954;SDS011;10636;19.390;-99.256;2023-08-08T02:52:47;5.20;;;4.70;;
20954;SDS011;10636;19.390;-99.256;2023-08-08T02:55:16;13.77;;;12.90;;
20954;SDS011;10636;19.390;-99.256;2023-08-08T02:57:47;12.68;;;11.93;;
20954;SDS011;10636;19.390;-99.256;2023-08-08T03:00:17;13.63;;;12.93;;
20954;SDS011;10636;19.390;-99.256;2023-08-08T03:02:46;14.13;;;13.15;;
20954;SDS011;10636;19.390;-99.256;2023-08-08T03:05:16;5.22;;;4.55;;
20954;SDS011;10636;19.390;-99.256;2023-08-08T03:07:47;5.28;;;4.78;;
20954;SDS011;10636;19.390;-99.256;2023-08-08T03:10:16;5.65;;;5.05;;
20954;SDS011;10636;19.390;-99.256;2023-08-08T03:12:47;5.30;;;4.80;;
20954;SDS011;10636;19.390;-99.256;2023-08-08T03:15:17;5.43;;;5.03;;
20954;SDS011;10636;19.390;-99.256;2023-08-08T03:17:46;5.28;;;4.78;;
20954;SDS011;10636;19.390;-99.256;2023-08-08T03:20:15;5.10;;;4.70;;
20954;SDS011;10636;19.390;-99.256;2023-08-08T03:22:45;5.32;;;4.82;;
20954;SDS011;10636;19.390;-99.256;2023-08-08T03:25:14;4.60;;;4.18;;
20954;SDS011;10636;19.390;-99.256;2023-08-08T03:27:43;4.72;;;4.43;;
20954;SDS011;10636;19.390;-99.256;2023-08-08T03:30:14;13.75;;;13.05;;
20954;SDS011;10636;19.390;-99.256;2023-08-08T03:32:43;4.53;;;4.03;;
20954;SDS011;10636;19.390;-99.256;2023-08-08T03:35:12;13.55;;;12.85;;
20954;SDS011;10636;19.390;-99.256;2023-08-08T03:37:42;15.45;;;14.75;;
20954;SDS011;10636;19.390;-99.256;2023-08-08T03:40:11;4.75;;;4.22;;
20954;SDS011;10636;19.390;-99.256;2023-08-08T03:42:41;13.70;;;13.05;;
20954;SDS011;10636;19.390;-99.256;2023-08-08T03:45:10;13.10;;;12.40;;
20954;SDS011;10636;19.390;-99.256;2023-08-08T03:47:41;14.15;;;13.45;;
20954;SDS011;10636;19.390;-99.256;2023-08-08T03:50:11;4.25;;;3.88;;
20954;SDS011;10636;19.390;-99.256;2023-08-08T03:52:40;4.55;;;4.25;;
20954;SDS011;10636;19.390;-99.256;2023-08-08T03:55:09;13.85;;;13.15;;
20954;SDS011;10636;19.390;-99.256;2023-08-08T03:57:38;4.45;;;4.10;;
20954;SDS011;10636;19.390;-99.256;2023-08-08T04:00:08;4.57;;;4.18;;
20954;SDS011;10636;19.390;-99.256;2023-08-08T04:02:39;13.85;;;13.25;;
20954;SDS011;10636;19.390;-99.256;2023-08-08T04:05:08;12.70;;;12.10;;
20954;SDS011;10636;19.390;-99.256;2023-08-08T04:07:38;13.10;;;12.50;;
20954;SDS011;10636;19.390;-99.256;2023-08-08T04:10:07;4.13;;;3.83;;
20954;SDS011;10636;19.390;-99.256;2023-08-08T04:12:36;4.00;;;3.70;;
20954;SDS011;10636;19.390;-99.256;2023-08-08T04:15:06;4.75;;;4.35;;
20954;SDS011;10636;19.390;-99.256;2023-08-08T04:17:35;12.68;;;11.88;;
20954;SDS011;10636;19.390;-99.256;2023-08-08T04:20:07;12.05;;;11.45;;
20954;SDS011;10636;19.390;-99.256;2023-08-08T04:22:37;11.27;;;10.63;;
20954;SDS011;10636;19.390;-99.256;2023-08-08T04:25:06;12.30;;;11.70;;
20954;SDS011;10636;19.390;-99.256;2023-08-08T04:27:35;11.98;;;11.38;;
20954;SDS011;10636;19.390;-99.256;2023-08-08T04:30:05;3.70;;;3.35;;
20954;SDS011;10636;19.390;-99.256;2023-08-08T04:32:35;12.77;;;12.18;;
20954;SDS011;10636;19.390;-99.256;2023-08-08T04:35:06;11.40;;;10.70;;
20954;SDS011;10636;19.390;-99.256;2023-08-08T04:37:35;12.38;;;11.82;;
20954;SDS011;10636;19.390;-99.256;2023-08-08T04:40:05;11.88;;;11.38;;
20954;SDS011;10636;19.390;-99.256;2023-08-08T04:42:35;4.00;;;3.70;;
20954;SDS011;10636;19.390;-99.256;2023-08-08T04:45:04;3.90;;;3.60;;
20954;SDS011;10636;19.390;-99.256;2023-08-08T04:47:34;4.45;;;4.10;;
20954;SDS011;10636;19.390;-99.256;2023-08-08T04:50:04;4.22;;;3.92;;
20954;SDS011;10636;19.390;-99.256;2023-08-08T04:52:35;12.45;;;11.85;;
20954;SDS011;10636;19.390;-99.256;2023-08-08T04:55:04;12.02;;;11.43;;
20954;SDS011;10636;19.390;-99.256;2023-08-08T04:57:34;13.35;;;12.73;;
20954;SDS011;10636;19.390;-99.256;2023-08-08T05:00:03;3.78;;;3.58;;
20954;SDS011;10636;19.390;-99.256;2023-08-08T05:02:34;4.50;;;4.10;;
20954;SDS011;10636;19.390;-99.256;2023-08-08T05:05:07;4.13;;;3.83;;
20954;SDS011;10636;19.390;-99.256;2023-08-08T05:07:36;4.50;;;4.20;;
20954;SDS011;10636;19.390;-99.256;2023-08-08T05:10:06;4.15;;;3.83;;
20954;SDS011;10636;19.390;-99.256;2023-08-08T05:12:36;4.28;;;3.97;;
20954;SDS011;10636;19.390;-99.256;2023-08-08T05:15:05;11.95;;;11.23;;
20954;SDS011;10636;19.390;-99.256;2023-08-08T05:17:35;3.92;;;3.60;;
20954;SDS011;10636;19.390;-99.256;2023-08-08T05:20:04;12.23;;;11.63;;
20954;SDS011;10636;19.390;-99.256;2023-08-08T05:22:36;12.70;;;12.10;;
20954;SDS011;10636;19.390;-99.256;2023-08-08T05:25:05;12.00;;;11.40;;
20954;SDS011;10636;19.390;-99.256;2023-08-08T05:27:35;13.85;;;13.25;;
20954;SDS011;10636;19.390;-99.256;2023-08-08T05:30:04;12.05;;;11.50;;
20954;SDS011;10636;19.390;-99.256;2023-08-08T05:32:34;11.05;;;10.55;;
20954;SDS011;10636;19.390;-99.256;2023-08-08T05:35:04;4.35;;;4.05;;
20954;SDS011;10636;19.390;-99.256;2023-08-08T05:37:35;12.88;;;12.18;;
20954;SDS011;10636;19.390;-99.256;2023-08-08T05:40:04;4.55;;;4.25;;
20954;SDS011;10636;19.390;-99.256;2023-08-08T05:42:36;12.25;;;11.63;;
20954;SDS011;10636;19.390;-99.256;2023-08-08T05:45:05;12.23;;;11.52;;
20954;SDS011;10636;19.390;-99.256;2023-08-08T05:47:35;4.38;;;4.07;;
20954;SDS011;10636;19.390;-99.256;2023-08-08T05:50:05;12.20;;;11.50;;
20954;SDS011;10636;19.390;-99.256;2023-08-08T05:52:36;4.10;;;3.80;;
20954;SDS011;10636;19.390;-99.256;2023-08-08T05:55:06;12.30;;;11.65;;
20954;SDS011;10636;19.390;-99.256;2023-08-08T05:57:35;12.93;;;12.32;;
20954;SDS011;10636;19.390;-99.256;2023-08-08T06:00:04;11.90;;;11.30;;
20954;SDS011;10636;19.390;-99.256;2023-08-08T06:02:37;12.98;;;12.38;;
20954;SDS011;10636;19.390;-99.256;2023-08-08T06:05:06;12.48;;;11.88;;
20954;SDS011;10636;19.390;-99.256;2023-08-08T06:07:38;10.88;;;10.38;;
20954;SDS011;10636;19.390;-99.256;2023-08-08T06:10:07;13.70;;;13.10;;
20954;SDS011;10636;19.390;-99.256;2023-08-08T06:12:36;12.40;;;11.70;;
20954;SDS011;10636;19.390;-99.256;2023-08-08T06:15:05;12.68;;;12.07;;
20954;SDS011;10636;19.390;-99.256;2023-08-08T06:17:35;4.40;;;4.10;;
20954;SDS011;10636;19.390;-99.256;2023-08-08T06:20:04;4.72;;;4.43;;
20954;SDS011;10636;19.390;-99.256;2023-08-08T06:22:34;4.75;;;4.38;;
20954;SDS011;10636;19.390;-99.256;2023-08-08T06:25:05;5.10;;;4.60;;
20954;SDS011;10636;19.390;-99.256;2023-08-08T06:27:34;12.75;;;12.15;;
20954;SDS011;10636;19.390;-99.256;2023-08-08T06:30:03;4.68;;;4.30;;
20954;SDS011;10636;19.390;-99.256;2023-08-08T06:32:32;5.32;;;4.85;;
20954;SDS011;10636;19.390;-99.256;2023-08-08T06:35:00;4.47;;;4.18;;
20954;SDS011;10636;19.390;-99.256;2023-08-08T06:37:29;5.07;;;4.60;;
20954;SDS011;10636;19.390;-99.256;2023-08-08T06:40:00;5.20;;;4.85;;
20954;SDS011;10636;19.390;-99.256;2023-08-08T06:42:29;4.55;;;4.25;;
20954;SDS011;10636;19.390;-99.256;2023-08-08T06:44:58;4.90;;;4.60;;
20954;SDS011;10636;19.390;-99.256;2023-08-08T06:47:27;5.55;;;5.15;;
20954;SDS011;10636;19.390;-99.256;2023-08-08T06:49:55;12.27;;;11.68;;
20954;SDS011;10636;19.390;-99.256;2023-08-08T06:52:24;12.82;;;12.23;;
20954;SDS011;10636;19.390;-99.256;2023-08-08T06:54:52;13.98;;;13.27;;
20954;SDS011;10636;19.390;-99.256;2023-08-08T06:57:22;12.18;;;11.57;;
20954;SDS011;10636;19.390;-99.256;2023-08-08T06:59:51;12.95;;;12.27;;
20954;SDS011;10636;19.390;-99.256;2023-08-08T07:02:19;11.35;;;10.85;;
20954;SDS011;10636;19.390;-99.256;2023-08-08T07:04:48;12.30;;;11.70;;
20954;SDS011;10636;19.390;-99.256;2023-08-08T07:07:17;13.45;;;12.85;;
20954;SDS011;10636;19.390;-99.256;2023-08-08T07:09:45;12.70;;;12.10;;
20954;SDS011;10636;19.390;-99.256;2023-08-08T07:12:16;12.68;;;12.07;;
20954;SDS011;10636;19.390;-99.256;2023-08-08T07:14:46;13.00;;;12.40;;
20954;SDS011;10636;19.390;-99.256;2023-08-08T07:17:14;11.18;;;10.57;;
20954;SDS011;10636;19.390;-99.256;2023-08-08T07:19:43;5.22;;;4.82;;
20954;SDS011;10636;19.390;-99.256;2023-08-08T07:22:12;5.70;;;5.30;;
20954;SDS011;10636;19.390;-99.256;2023-08-08T07:24:40;13.07;;;12.43;;
20954;SDS011;10636;19.390;-99.256;2023-08-08T07:27:09;5.30;;;4.90;;
20954;SDS011;10636;19.390;-99.256;2023-08-08T07:29:37;12.70;;;12.00;;
20954;SDS011;10636;19.390;-99.256;2023-08-08T07:32:08;12.30;;;11.50;;
20954;SDS011;10636;19.390;-99.256;2023-08-08T07:34:37;11.57;;;11.02;;
20954;SDS011;10636;19.390;-99.256;2023-08-08T07:37:05;14.20;;;13.50;;
20954;SDS011;10636;19.390;-99.256;2023-08-08T07:39:34;12.57;;;11.98;;
20954;SDS011;10636;19.390;-99.256;2023-08-08T07:42:02;13.82;;;13.13;;
20954;SDS011;10636;19.390;-99.256;2023-08-08T07:44:31;12.13;;;11.52;;
20954;SDS011;10636;19.390;-99.256;2023-08-08T07:47:00;13.07;;;12.38;;
20954;SDS011;10636;19.390;-99.256;2023-08-08T07:49:30;5.75;;;5.35;;
20954;SDS011;10636;19.390;-99.256;2023-08-08T07:51:59;5.63;;;5.28;;
20954;SDS011;10636;19.390;-99.256;2023-08-08T07:54:27;5.57;;;5.18;;
20954;SDS011;10636;19.390;-99.256;2023-08-08T07:56:56;14.30;;;13.52;;
20954;SDS011;10636;19.390;-99.256;2023-08-08T07:59:24;13.10;;;12.43;;
20954;SDS011;10636;19.390;-99.256;2023-08-08T08:01:53;12.30;;;11.70;;
20954;SDS011;10636;19.390;-99.256;2023-08-08T08:04:21;47.50;;;45.15;;
20954;SDS011;10636;19.390;-99.256;2023-08-08T08:06:52;43.03;;;41.00;;
20954;SDS011;10636;19.390;-99.256;2023-08-08T08:09:20;47.95;;;45.70;;
20954;SDS011;10636;19.390;-99.256;2023-08-08T08:11:49;35.67;;;33.97;;
20954;SDS011;10636;19.390;-99.256;2023-08-08T08:14:17;47.75;;;45.47;;
20954;SDS011;10636;19.390;-99.256;2023-08-08T08:16:46;47.78;;;45.63;;
20954;SDS011;10636;19.390;-99.256;2023-08-08T08:19:15;55.78;;;53.08;;
20954;SDS011;10636;19.390;-99.256;2023-08-08T08:21:43;49.65;;;47.15;;
20954;SDS011;10636;19.390;-99.256;2023-08-08T08:24:14;54.08;;;51.58;;
20954;SDS011;10636;19.390;-99.256;2023-08-08T08:26:42;52.45;;;50.00;;
20954;SDS011;10636;19.390;-99.256;2023-08-08T08:29:11;65.78;;;62.72;;
20954;SDS011;10636;19.390;-99.256;2023-08-08T08:31:39;52.55;;;50.17;;
20954;SDS011;10636;19.390;-99.256;2023-08-08T08:34:08;60.10;;;57.33;;
20954;SDS011;10636;19.390;-99.256;2023-08-08T08:36:36;49.58;;;47.33;;
20954;SDS011;10636;19.390;-99.256;2023-08-08T08:39:05;36.40;;;34.70;;
20954;SDS011;10636;19.390;-99.256;2023-08-08T08:41:35;45.70;;;43.50;;
20954;SDS011;10636;19.390;-99.256;2023-08-08T08:44:04;51.80;;;49.40;;
20954;SDS011;10636;19.390;-99.256;2023-08-08T08:46:33;47.63;;;45.55;;
20954;SDS011;10636;19.390;-99.256;2023-08-08T08:49:05;57.22;;;54.47;;
20954;SDS011;10636;19.390;-99.256;2023-08-08T08:51:35;60.35;;;57.70;;
20954;SDS011;10636;19.390;-99.256;2023-08-08T08:54:03;51.13;;;48.70;;
20954;SDS011;10636;19.390;-99.256;2023-08-08T08:56:32;57.75;;;55.10;;
20954;SDS011;10636;19.390;-99.256;2023-08-08T08:59:03;61.00;;;58.13;;
20954;SDS011;10636;19.390;-99.256;2023-08-08T09:01:32;48.72;;;46.45;;
20954;SDS011;10636;19.390;-99.256;2023-08-08T09:04:01;52.00;;;49.58;;
20954;SDS011;10636;19.390;-99.256;2023-08-08T09:06:33;48.83;;;46.45;;
20954;SDS011;10636;19.390;-99.256;2023-08-08T09:09:04;53.47;;;51.00;;
20954;SDS011;10636;19.390;-99.256;2023-08-08T09:11:32;52.28;;;49.80;;
20954;SDS011;10636;19.390;-99.256;2023-08-08T09:14:03;52.42;;;49.83;;
20954;SDS011;10636;19.390;-99.256;2023-08-08T09:16:31;47.75;;;45.45;;
20954;SDS011;10636;19.390;-99.256;2023-08-08T09:19:00;50.35;;;47.95;;
20954;SDS011;10636;19.390;-99.256;2023-08-08T09:21:29;57.40;;;54.67;;
20954;SDS011;10636;19.390;-99.256;2023-08-08T09:23:58;55.90;;;53.22;;
20954;SDS011;10636;19.390;-99.256;2023-08-08T09:26:26;51.30;;;48.85;;
20954;SDS011;10636;19.390;-99.256;2023-08-08T09:28:58;48.33;;;46.05;;
20954;SDS011;10636;19.390;-99.256;2023-08-08T09:31:27;56.47;;;53.90;;
20954;SDS011;10636;19.390;-99.256;2023-08-08T09:33:56;43.78;;;41.42;;
20954;SDS011;10636;19.390;-99.256;2023-08-08T09:36:25;50.58;;;48.15;;
20954;SDS011;10636;19.390;-99.256;2023-08-08T09:38:54;49.92;;;47.58;;
20954;SDS011;10636;19.390;-99.256;2023-08-08T09:41:23;45.08;;;42.80;;
20954;SDS011;10636;19.390;-99.256;2023-08-08T09:43:52;47.45;;;45.20;;
20954;SDS011;10636;19.390;-99.256;2023-08-08T09:46:23;56.97;;;54.28;;
20954;SDS011;10636;19.390;-99.256;2023-08-08T09:48:51;58.15;;;55.42;;
20954;SDS011;10636;19.390;-99.256;2023-08-08T09:51:21;39.70;;;37.88;;
20954;SDS011;10636;19.390;-99.256;2023-08-08T09:53:50;52.97;;;50.35;;
20954;SDS011;10636;19.390;-99.256;2023-08-08T09:56:19;50.05;;;47.58;;
20954;SDS011;10636;19.390;-99.256;2023-08-08T09:58:49;59.30;;;56.35;;
20954;SDS011;10636;19.390;-99.256;2023-08-08T10:01:18;57.17;;;54.63;;
20954;SDS011;10636;19.390;-99.256;2023-08-08T10:03:49;52.83;;;50.33;;
20954;SDS011;10636;19.390;-99.256;2023-08-08T10:06:19;44.45;;;42.45;;
20954;SDS011;10636;19.390;-99.256;2023-08-08T10:08:48;6.13;;;5.63;;
20954;SDS011;10636;19.390;-99.256;2023-08-08T10:11:18;6.28;;;5.78;;
20954;SDS011;10636;19.390;-99.256;2023-08-08T10:13:49;40.58;;;38.63;;
20954;SDS011;10636;19.390;-99.256;2023-08-08T10:16:20;49.08;;;46.83;;
20954;SDS011;10636;19.390;-99.256;2023-08-08T10:18:56;45.53;;;43.30;;
20954;SDS011;10636;19.390;-99.256;2023-08-08T10:21:27;49.38;;;47.20;;
20954;SDS011;10636;19.390;-99.256;2023-08-08T10:24:03;49.83;;;47.47;;
20954;SDS011;10636;19.390;-99.256;2023-08-08T10:26:33;5.15;;;4.75;;
20954;SDS011;10636;19.390;-99.256;2023-08-08T10:29:01;5.38;;;4.97;;
20954;SDS011;10636;19.390;-99.256;2023-08-08T10:31:33;5.00;;;4.60;;
20954;SDS011;10636;19.390;-99.256;2023-08-08T10:34:04;40.75;;;38.70;;
20954;SDS011;10636;19.390;-99.256;2023-08-08T10:39:27;52.42;;;49.95;;
20954;SDS011;10636;19.390;-99.256;2023-08-08T10:42:00;53.38;;;50.85;;
20954;SDS011;10636;19.390;-99.256;2023-08-08T10:44:31;60.83;;;57.95;;
20954;SDS011;10636;19.390;-99.256;2023-08-08T10:47:08;53.88;;;51.33;;
20954;SDS011;10636;19.390;-99.256;2023-08-08T10:49:41;45.95;;;43.78;;
20954;SDS011;10636;19.390;-99.256;2023-08-08T10:52:13;61.60;;;58.78;;
20954;SDS011;10636;19.390;-99.256;2023-08-08T10:54:42;51.40;;;48.92;;
20954;SDS011;10636;19.390;-99.256;2023-08-08T10:57:23;64.65;;;61.55;;
20954;SDS011;10636;19.390;-99.256;2023-08-08T10:59:54;49.22;;;47.08;;
20954;SDS011;10636;19.390;-99.256;2023-08-08T11:02:22;12.88;;;12.27;;
20954;SDS011;10636;19.390;-99.256;2023-08-08T11:04:53;14.45;;;13.65;;
20954;SDS011;10636;19.390;-99.256;2023-08-08T11:07:23;13.57;;;12.88;;
20954;SDS011;10636;19.390;-99.256;2023-08-08T11:09:55;5.40;;;5.00;;
20954;SDS011;10636;19.390;-99.256;2023-08-08T11:12:25;5.93;;;5.43;;
20954;SDS011;10636;19.390;-99.256;2023-08-08T11:14:53;5.72;;;5.32;;
20954;SDS011;10636;19.390;-99.256;2023-08-08T11:17:23;5.38;;;4.88;;
20954;SDS011;10636;19.390;-99.256;2023-08-08T11:19:53;13.52;;;12.82;;
20954;SDS011;10636;19.390;-99.256;2023-08-08T11:22:22;13.32;;;12.73;;
20954;SDS011;10636;19.390;-99.256;2023-08-08T11:24:51;4.93;;;4.63;;
20954;SDS011;10636;19.390;-99.256;2023-08-08T11:27:23;4.60;;;4.25;;
20954;SDS011;10636;19.390;-99.256;2023-08-08T11:29:52;12.07;;;11.50;;
20954;SDS011;10636;19.390;-99.256;2023-08-08T11:32:21;4.85;;;4.55;;
20954;SDS011;10636;19.390;-99.256;2023-08-08T11:34:50;11.13;;;10.52;;
20954;SDS011;10636;19.390;-99.256;2023-08-08T11:37:20;12.80;;;12.20;;
20954;SDS011;10636;19.390;-99.256;2023-08-08T11:39:50;11.65;;;11.15;;
20954;SDS011;10636;19.390;-99.256;2023-08-08T11:42:19;12.73;;;12.13;;
20954;SDS011;10636;19.390;-99.256;2023-08-08T11:44:47;13.40;;;12.80;;
20954;SDS011;10636;19.390;-99.256;2023-08-08T11:47:16;4.55;;;4.15;;
20954;SDS011;10636;19.390;-99.256;2023-08-08T11:49:45;11.73;;;11.13;;
20954;SDS011;10636;19.390;-99.256;2023-08-08T11:52:13;12.70;;;12.00;;
20954;SDS011;10636;19.390;-99.256;2023-08-08T11:54:44;13.00;;;12.40;;
20954;SDS011;10636;19.390;-99.256;2023-08-08T11:57:17;12.52;;;11.93;;
20954;SDS011;10636;19.390;-99.256;2023-08-08T11:59:48;11.80;;;11.10;;
20954;SDS011;10636;19.390;-99.256;2023-08-08T12:02:17;12.00;;;11.48;;
20954;SDS011;10636;19.390;-99.256;2023-08-08T12:04:45;4.47;;;4.15;;
20954;SDS011;10636;19.390;-99.256;2023-08-08T12:07:14;11.98;;;11.40;;
20954;SDS011;10636;19.390;-99.256;2023-08-08T12:09:46;11.98;;;11.38;;
20954;SDS011;10636;19.390;-99.256;2023-08-08T12:12:15;4.70;;;4.30;;
20954;SDS011;10636;19.390;-99.256;2023-08-08T12:14:44;4.53;;;4.22;;
20954;SDS011;10636;19.390;-99.256;2023-08-08T12:17:14;12.43;;;11.80;;
20954;SDS011;10636;19.390;-99.256;2023-08-08T12:19:45;12.48;;;11.88;;
20954;SDS011;10636;19.390;-99.256;2023-08-08T12:22:14;12.55;;;11.95;;
20954;SDS011;10636;19.390;-99.256;2023-08-08T12:24:43;10.75;;;10.25;;
20954;SDS011;10636;19.390;-99.256;2023-08-08T12:27:13;12.25;;;11.65;;
20954;SDS011;10636;19.390;-99.256;2023-08-08T12:29:42;11.77;;;11.18;;
20954;SDS011;10636;19.390;-99.256;2023-08-08T12:32:10;12.75;;;12.05;;
20954;SDS011;10636;19.390;-99.256;2023-08-08T12:34:39;12.73;;;12.02;;
20954;SDS011;10636;19.390;-99.256;2023-08-08T12:37:07;12.93;;;12.32;;
20954;SDS011;10636;19.390;-99.256;2023-08-08T12:39:36;12.25;;;11.65;;
20954;SDS011;10636;19.390;-99.256;2023-08-08T12:42:04;4.43;;;4.13;;
20954;SDS011;10636;19.390;-99.256;2023-08-08T12:44:35;11.82;;;11.23;;
20954;SDS011;10636;19.390;-99.256;2023-08-08T12:47:03;12.10;;;11.50;;
20954;SDS011;10636;19.390;-99.256;2023-08-08T12:49:32;12.90;;;12.30;;
20954;SDS011;10636;19.390;-99.256;2023-08-08T12:52:01;11.35;;;10.73;;
20954;SDS011;10636;19.390;-99.256;2023-08-08T12:54:29;11.77;;;11.13;;
20954;SDS011;10636;19.390;-99.256;2023-08-08T12:56:58;14.07;;;13.27;;
20954;SDS011;10636;19.390;-99.256;2023-08-08T12:59:27;12.70;;;12.07;;
20954;SDS011;10636;19.390;-99.256;2023-08-08T13:01:58;5.03;;;4.63;;
20954;SDS011;10636;19.390;-99.256;2023-08-08T13:04:27;5.88;;;5.00;;
20954;SDS011;10636;19.390;-99.256;2023-08-08T13:06:56;13.40;;;12.68;;
20954;SDS011;10636;19.390;-99.256;2023-08-08T13:09:24;14.48;;;13.68;;
20954;SDS011;10636;19.390;-99.256;2023-08-08T13:11:53;13.73;;;12.93;;
20954;SDS011;10636;19.390;-99.256;2023-08-08T13:14:21;13.57;;;12.77;;
20954;SDS011;10636;19.390;-99.256;2023-08-08T13:16:50;14.02;;;13.23;;
20954;SDS011;10636;19.390;-99.256;2023-08-08T13:19:21;13.98;;;13.18;;
20954;SDS011;10636;19.390;-99.256;2023-08-08T13:21:50;5.70;;;5.20;;
20954;SDS011;10636;19.390;-99.256;2023-08-08T13:24:20;14.45;;;13.68;;
20954;SDS011;10636;19.390;-99.256;2023-08-08T13:26:48;6.13;;;5.60;;
20954;SDS011;10636;19.390;-99.256;2023-08-08T13:29:17;5.43;;;5.03;;
20954;SDS011;10636;19.390;-99.256;2023-08-08T13:31:46;5.75;;;5.25;;
20954;SDS011;10636;19.390;-99.256;2023-08-08T13:34:14;5.90;;;5.40;;
20954;SDS011;10636;19.390;-99.256;2023-08-08T13:36:45;8.18;;;5.93;;
20954;SDS011;10636;19.390;-99.256;2023-08-08T13:39:13;13.80;;;12.98;;
20954;SDS011;10636;19.390;-99.256;2023-08-08T13:41:42;5.50;;;5.00;;
20954;SDS011;10636;19.390;-99.256;2023-08-08T13:44:12;7.05;;;5.50;;
20954;SDS011;10636;19.390;-99.256;2023-08-08T13:46:40;13.90;;;13.05;;
20954;SDS011;10636;19.390;-99.256;2023-08-08T13:49:08;14.20;;;13.40;;
20954;SDS011;10636;19.390;-99.256;2023-08-08T13:51:37;6.28;;;5.43;;
20954;SDS011;10636;19.390;-99.256;2023-08-08T13:54:07;7.45;;;5.57;;
20954;SDS011;10636;19.390;-99.256;2023-08-08T13:56:36;6.40;;;5.80;;
20954;SDS011;10636;19.390;-99.256;2023-08-08T13:59:05;7.03;;;6.43;;
20954;SDS011;10636;19.390;-99.256;2023-08-08T14:01:34;6.72;;;5.97;;
20954;SDS011;10636;19.390;-99.256;2023-08-08T14:04:03;14.98;;;14.07;;
20954;SDS011;10636;19.390;-99.256;2023-08-08T14:06:32;15.00;;;14.00;;
20954;SDS011;10636;19.390;-99.256;2023-08-08T14:09:00;6.75;;;6.05;;
20954;SDS011;10636;19.390;-99.256;2023-08-08T14:11:31;6.82;;;6.25;;
20954;SDS011;10636;19.390;-99.256;2023-08-08T14:14:00;7.43;;;6.72;;
20954;SDS011;10636;19.390;-99.256;2023-08-08T14:16:28;8.88;;;7.90;;
20954;SDS011;10636;19.390;-99.256;2023-08-08T14:18:58;15.05;;;14.02;;